sensor_id;sensor_type;location;lat;lon;timestamp;temperature;humidity
6758;DHT22;3416;53.074;8.822;2023-08-07T00:00:24;16.30;99.90
6758;DHT22;3416;53.074;8.822;2023-08-07T00:02:51;16.30;99.90
6758;DHT22;3416;53.074;8.822;2023-08-07T00:05:18;16.20;99.90
6758;DHT22;3416;53.074;8.822;2023-08-07T00:07:45;16.20;99.90
6758;DHT22;3416;53.074;8.822;2023-08-07T00:10:12;16.20;99.90
6758;DHT22;3416;53.074;8.822;2023-08-07T00:12:39;16.20;99.90
6758;DHT22;3416;53.074;8.822;2023-08-07T00:15:06;16.10;99.90
6758;DHT22;3416;53.074;8.822;2023-08-07T00:17:35;16.20;99.90
6758;DHT22;3416;53.074;8.822;2023-08-07T00:20:03;16.10;99.90
6758;DHT22;3416;53.074;8.822;2023-08-07T00:22:31;16.10;99.90
6758;DHT22;3416;53.074;8.822;2023-08-07T00:24:57;16.10;99.90
6758;DHT22;3416;53.074;8.822;2023-08-07T00:27:24;16.10;99.90
6758;DHT22;3416;53.074;8.822;2023-08-07T00:29:52;16.20;99.90
6758;DHT22;3416;53.074;8.822;2023-08-07T00:32:19;16.20;99.90
6758;DHT22;3416;53.074;8.822;2023-08-07T00:34:49;16.20;99.90
6758;DHT22;3416;53.074;8.822;2023-08-07T00:37:15;16.30;99.90
6758;DHT22;3416;53.074;8.822;2023-08-07T00:39:43;16.30;99.90
6758;DHT22;3416;53.074;8.822;2023-08-07T00:42:10;16.30;99.90
6758;DHT22;3416;53.074;8.822;2023-08-07T00:44:38;16.30;99.90
6758;DHT22;3416;53.074;8.822;2023-08-07T00:47:06;16.20;99.90
6758;DHT22;3416;53.074;8.822;2023-08-07T00:49:33;16.30;99.90
6758;DHT22;3416;53.074;8.822;2023-08-07T00:52:02;16.20;99.90
6758;DHT22;3416;53.074;8.822;2023-08-07T00:54:29;16.20;99.90
6758;DHT22;3416;53.074;8.822;2023-08-07T00:56:58;16.20;99.90
6758;DHT22;3416;53.074;8.822;2023-08-07T00:59:25;16.20;99.90
6758;DHT22;3416;53.074;8.822;2023-08-07T01:01:52;16.10;99.90
6758;DHT22;3416;53.074;8.822;2023-08-07T01:04:19;16.20;99.90
6758;DHT22;3416;53.074;8.822;2023-08-07T01:06:48;16.20;99.90
6758;DHT22;3416;53.074;8.822;2023-08-07T01:09:16;16.20;99.90
6758;DHT22;3416;53.074;8.822;2023-08-07T01:11:48;16.10;99.90
6758;DHT22;3416;53.074;8.822;2023-08-07T01:14:22;16.10;99.90
6758;DHT22;3416;53.074;8.822;2023-08-07T01:16:55;16.10;99.90
6758;DHT22;3416;53.074;8.822;2023-08-07T01:19:24;16.00;99.90
6758;DHT22;3416;53.074;8.822;2023-08-07T01:22:06;16.00;99.90
6758;DHT22;3416;53.074;8.822;2023-08-07T01:24:34;16.00;99.90
6758;DHT22;3416;53.074;8.822;2023-08-07T01:27:10;16.00;99.90
6758;DHT22;3416;53.074;8.822;2023-08-07T01:29:44;15.90;99.90
6758;DHT22;3416;53.074;8.822;2023-08-07T01:32:14;15.80;99.90
6758;DHT22;3416;53.074;8.822;2023-08-07T01:34:45;15.80;99.90
6758;DHT22;3416;53.074;8.822;2023-08-07T01:37:14;15.80;99.90
6758;DHT22;3416;53.074;8.822;2023-08-07T01:39:41;15.80;99.90
6758;DHT22;3416;53.074;8.822;2023-08-07T01:42:09;15.70;99.90
6758;DHT22;3416;53.074;8.822;2023-08-07T01:44:37;15.70;99.90
6758;DHT22;3416;53.074;8.822;2023-08-07T01:47:04;15.70;99.90
6758;DHT22;3416;53.074;8.822;2023-08-07T01:49:31;15.70;99.90
6758;DHT22;3416;53.074;8.822;2023-08-07T01:51:58;15.70;99.90
6758;DHT22;3416;53.074;8.822;2023-08-07T01:54:27;15.80;99.90
6758;DHT22;3416;53.074;8.822;2023-08-07T01:56:54;15.70;99.90
6758;DHT22;3416;53.074;8.822;2023-08-07T01:59:20;15.70;99.90
6758;DHT22;3416;53.074;8.822;2023-08-07T02:01:48;15.70;99.90
6758;DHT22;3416;53.074;8.822;2023-08-07T02:04:14;15.70;99.90
6758;DHT22;3416;53.074;8.822;2023-08-07T02:06:41;15.60;99.90
6758;DHT22;3416;53.074;8.822;2023-08-07T02:09:08;15.60;99.90
6758;DHT22;3416;53.074;8.822;2023-08-07T02:11:36;15.50;99.90
6758;DHT22;3416;53.074;8.822;2023-08-07T02:14:03;15.60;99.90
6758;DHT22;3416;53.074;8.822;2023-08-07T02:16:30;15.60;99.90
6758;DHT22;3416;53.074;8.822;2023-08-07T02:18:57;15.60;99.90
6758;DHT22;3416;53.074;8.822;2023-08-07T02:21:24;15.70;99.90
6758;DHT22;3416;53.074;8.822;2023-08-07T02:23:51;15.70;99.90
6758;DHT22;3416;53.074;8.822;2023-08-07T02:26:18;15.70;99.90
6758;DHT22;3416;53.074;8.822;2023-08-07T02:28:48;15.70;99.90
6758;DHT22;3416;53.074;8.822;2023-08-07T02:31:15;15.70;99.90
6758;DHT22;3416;53.074;8.822;2023-08-07T02:33:42;15.80;99.90
6758;DHT22;3416;53.074;8.822;2023-08-07T02:36:09;15.80;99.90
6758;DHT22;3416;53.074;8.822;2023-08-07T02:38:36;15.80;99.90
6758;DHT22;3416;53.074;8.822;2023-08-07T02:41:03;15.80;99.90
6758;DHT22;3416;53.074;8.822;2023-08-07T02:43:30;15.70;99.90
6758;DHT22;3416;53.074;8.822;2023-08-07T02:46:00;15.70;99.90
6758;DHT22;3416;53.074;8.822;2023-08-07T02:48:27;15.70;99.90
6758;DHT22;3416;53.074;8.822;2023-08-07T02:50:54;15.60;99.90
6758;DHT22;3416;53.074;8.822;2023-08-07T02:53:21;15.60;99.90
6758;DHT22;3416;53.074;8.822;2023-08-07T02:55:47;15.50;99.90
6758;DHT22;3416;53.074;8.822;2023-08-07T02:58:16;15.50;99.90
6758;DHT22;3416;53.074;8.822;2023-08-07T03:00:43;15.50;99.90
6758;DHT22;3416;53.074;8.822;2023-08-07T03:03:12;15.50;99.90
6758;DHT22;3416;53.074;8.822;2023-08-07T03:05:39;15.50;99.90
6758;DHT22;3416;53.074;8.822;2023-08-07T03:08:05;15.50;99.90
6758;DHT22;3416;53.074;8.822;2023-08-07T03:10:33;15.50;99.90
6758;DHT22;3416;53.074;8.822;2023-08-07T03:12:59;15.50;99.90
6758;DHT22;3416;53.074;8.822;2023-08-07T03:15:26;15.50;99.90
6758;DHT22;3416;53.074;8.822;2023-08-07T03:17:53;15.50;99.90
6758;DHT22;3416;53.074;8.822;2023-08-07T03:20:22;15.50;99.90
6758;DHT22;3416;53.074;8.822;2023-08-07T03:22:49;15.50;99.90
6758;DHT22;3416;53.074;8.822;2023-08-07T03:25:16;15.50;99.90
6758;DHT22;3416;53.074;8.822;2023-08-07T03:27:43;15.50;99.90
6758;DHT22;3416;53.074;8.822;2023-08-07T03:30:10;15.50;99.90
6758;DHT22;3416;53.074;8.822;2023-08-07T03:32:37;15.60;99.90
6758;DHT22;3416;53.074;8.822;2023-08-07T03:35:06;15.60;99.90
6758;DHT22;3416;53.074;8.822;2023-08-07T03:37:34;15.60;99.90
6758;DHT22;3416;53.074;8.822;2023-08-07T03:40:01;15.60;99.90
6758;DHT22;3416;53.074;8.822;2023-08-07T03:42:28;15.60;99.90
6758;DHT22;3416;53.074;8.822;2023-08-07T03:44:55;15.60;99.90
6758;DHT22;3416;53.074;8.822;2023-08-07T03:47:22;15.60;99.90
6758;DHT22;3416;53.074;8.822;2023-08-07T03:49:49;15.60;99.90
6758;DHT22;3416;53.074;8.822;2023-08-07T03:52:16;15.60;99.90
6758;DHT22;3416;53.074;8.822;2023-08-07T03:54:45;15.70;99.90
6758;DHT22;3416;53.074;8.822;2023-08-07T03:57:12;15.80;99.90
6758;DHT22;3416;53.074;8.822;2023-08-07T03:59:39;15.80;99.90
6758;DHT22;3416;53.074;8.822;2023-08-07T04:02:06;15.90;99.90
6758;DHT22;3416;53.074;8.822;2023-08-07T04:04:33;15.90;99.90
6758;DHT22;3416;53.074;8.822;2023-08-07T04:07:00;15.90;99.90
6758;DHT22;3416;53.074;8.822;2023-08-07T04:09:27;15.80;99.90
6758;DHT22;3416;53.074;8.822;2023-08-07T04:11:55;15.80;99.90
6758;DHT22;3416;53.074;8.822;2023-08-07T04:14:22;15.80;99.90
6758;DHT22;3416;53.074;8.822;2023-08-07T04:16:49;15.80;99.90
6758;DHT22;3416;53.074;8.822;2023-08-07T04:19:16;15.80;99.90
6758;DHT22;3416;53.074;8.822;2023-08-07T04:21:44;15.80;99.90
6758;DHT22;3416;53.074;8.822;2023-08-07T04:24:11;15.80;99.90
6758;DHT22;3416;53.074;8.822;2023-08-07T04:26:38;15.80;99.90
6758;DHT22;3416;53.074;8.822;2023-08-07T04:29:06;15.80;99.90
6758;DHT22;3416;53.074;8.822;2023-08-07T04:31:35;15.80;99.90
6758;DHT22;3416;53.074;8.822;2023-08-07T04:34:01;15.80;99.90
6758;DHT22;3416;53.074;8.822;2023-08-07T04:36:28;15.80;99.90
6758;DHT22;3416;53.074;8.822;2023-08-07T04:38:55;15.80;99.90
6758;DHT22;3416;53.074;8.822;2023-08-07T04:41:23;15.80;99.90
6758;DHT22;3416;53.074;8.822;2023-08-07T04:43:50;15.80;99.90
6758;DHT22;3416;53.074;8.822;2023-08-07T04:46:18;15.80;99.90
6758;DHT22;3416;53.074;8.822;2023-08-07T04:48:45;15.90;99.90
6758;DHT22;3416;53.074;8.822;2023-08-07T04:51:14;16.00;99.90
6758;DHT22;3416;53.074;8.822;2023-08-07T04:53:41;16.00;99.90
6758;DHT22;3416;53.074;8.822;2023-08-07T04:56:10;16.10;99.90
6758;DHT22;3416;53.074;8.822;2023-08-07T04:58:37;16.10;99.90
6758;DHT22;3416;53.074;8.822;2023-08-07T05:01:04;16.20;99.90
6758;DHT22;3416;53.074;8.822;2023-08-07T05:03:33;16.10;99.90
6758;DHT22;3416;53.074;8.822;2023-08-07T05:06:00;16.20;99.90
6758;DHT22;3416;53.074;8.822;2023-08-07T05:08:27;16.20;99.90
6758;DHT22;3416;53.074;8.822;2023-08-07T05:10:54;16.20;99.90
6758;DHT22;3416;53.074;8.822;2023-08-07T05:13:21;16.20;99.90
6758;DHT22;3416;53.074;8.822;2023-08-07T05:15:49;16.20;99.90
6758;DHT22;3416;53.074;8.822;2023-08-07T05:18:18;16.20;99.90
6758;DHT22;3416;53.074;8.822;2023-08-07T05:20:46;16.30;99.90
6758;DHT22;3416;53.074;8.822;2023-08-07T05:23:14;16.30;99.90
6758;DHT22;3416;53.074;8.822;2023-08-07T05:25:41;16.30;99.90
6758;DHT22;3416;53.074;8.822;2023-08-07T05:28:08;16.30;99.90
6758;DHT22;3416;53.074;8.822;2023-08-07T05:30:34;16.30;99.90
6758;DHT22;3416;53.074;8.822;2023-08-07T05:33:01;16.30;99.90
6758;DHT22;3416;53.074;8.822;2023-08-07T05:35:28;16.30;99.90
6758;DHT22;3416;53.074;8.822;2023-08-07T05:37:56;16.40;99.90
6758;DHT22;3416;53.074;8.822;2023-08-07T05:40:24;16.40;99.90
6758;DHT22;3416;53.074;8.822;2023-08-07T05:42:51;16.40;99.90
6758;DHT22;3416;53.074;8.822;2023-08-07T05:45:18;16.40;99.90
6758;DHT22;3416;53.074;8.822;2023-08-07T05:47:46;16.40;99.90
6758;DHT22;3416;53.074;8.822;2023-08-07T05:50:13;16.50;99.90
6758;DHT22;3416;53.074;8.822;2023-08-07T05:52:40;16.50;99.90
6758;DHT22;3416;53.074;8.822;2023-08-07T05:55:09;16.60;99.90
6758;DHT22;3416;53.074;8.822;2023-08-07T05:57:36;16.60;99.90
6758;DHT22;3416;53.074;8.822;2023-08-07T06:00:04;16.70;99.90
6758;DHT22;3416;53.074;8.822;2023-08-07T06:02:31;16.70;99.90
6758;DHT22;3416;53.074;8.822;2023-08-07T06:04:58;17.10;99.90
6758;DHT22;3416;53.074;8.822;2023-08-07T06:07:25;17.40;99.90
6758;DHT22;3416;53.074;8.822;2023-08-07T06:09:52;17.90;99.90
6758;DHT22;3416;53.074;8.822;2023-08-07T06:12:20;18.30;99.90
6758;DHT22;3416;53.074;8.822;2023-08-07T06:14:47;18.90;99.90
6758;DHT22;3416;53.074;8.822;2023-08-07T06:17:14;19.00;99.90
6758;DHT22;3416;53.074;8.822;2023-08-07T06:19:42;19.00;99.90
6758;DHT22;3416;53.074;8.822;2023-08-07T06:22:09;18.90;99.90
6758;DHT22;3416;53.074;8.822;2023-08-07T06:24:37;18.60;99.90
6758;DHT22;3416;53.074;8.822;2023-08-07T06:27:04;18.50;99.90
6758;DHT22;3416;53.074;8.822;2023-08-07T06:29:33;18.60;99.90
6758;DHT22;3416;53.074;8.822;2023-08-07T06:32:01;18.90;99.90
6758;DHT22;3416;53.074;8.822;2023-08-07T06:34:28;19.20;99.90
6758;DHT22;3416;53.074;8.822;2023-08-07T06:36:55;19.30;99.90
6758;DHT22;3416;53.074;8.822;2023-08-07T06:39:22;19.20;99.90
6758;DHT22;3416;53.074;8.822;2023-08-07T06:41:49;19.30;99.90
6758;DHT22;3416;53.074;8.822;2023-08-07T06:44:16;20.10;99.90
6758;DHT22;3416;53.074;8.822;2023-08-07T06:46:44;21.30;99.90
6758;DHT22;3416;53.074;8.822;2023-08-07T06:49:11;22.60;99.90
6758;DHT22;3416;53.074;8.822;2023-08-07T06:51:38;23.60;99.90
6758;DHT22;3416;53.074;8.822;2023-08-07T06:54:05;23.60;99.90
6758;DHT22;3416;53.074;8.822;2023-08-07T06:56:32;23.00;99.90
6758;DHT22;3416;53.074;8.822;2023-08-07T06:59:08;21.90;99.90
6758;DHT22;3416;53.074;8.822;2023-08-07T07:01:35;21.00;99.90
6758;DHT22;3416;53.074;8.822;2023-08-07T07:04:03;20.10;99.90
6758;DHT22;3416;53.074;8.822;2023-08-07T07:06:30;19.40;99.90
6758;DHT22;3416;53.074;8.822;2023-08-07T07:08:58;19.00;99.90
6758;DHT22;3416;53.074;8.822;2023-08-07T07:11:27;18.90;99.90
6758;DHT22;3416;53.074;8.822;2023-08-07T07:13:54;18.80;99.90
6758;DHT22;3416;53.074;8.822;2023-08-07T07:16:21;18.60;99.90
6758;DHT22;3416;53.074;8.822;2023-08-07T07:18:49;18.60;99.90
6758;DHT22;3416;53.074;8.822;2023-08-07T07:21:17;18.50;99.90
6758;DHT22;3416;53.074;8.822;2023-08-07T07:23:44;18.50;99.90
6758;DHT22;3416;53.074;8.822;2023-08-07T07:26:11;18.50;99.90
6758;DHT22;3416;53.074;8.822;2023-08-07T07:28:38;18.50;99.90
6758;DHT22;3416;53.074;8.822;2023-08-07T07:31:05;18.80;99.90
6758;DHT22;3416;53.074;8.822;2023-08-07T07:33:36;19.10;99.90
6758;DHT22;3416;53.074;8.822;2023-08-07T07:36:04;19.40;99.90
6758;DHT22;3416;53.074;8.822;2023-08-07T07:38:33;19.50;99.90
6758;DHT22;3416;53.074;8.822;2023-08-07T07:41:00;19.80;99.90
6758;DHT22;3416;53.074;8.822;2023-08-07T07:43:27;20.50;99.90
6758;DHT22;3416;53.074;8.822;2023-08-07T07:45:55;20.70;99.90
6758;DHT22;3416;53.074;8.822;2023-08-07T07:48:22;20.80;99.90
6758;DHT22;3416;53.074;8.822;2023-08-07T07:50:49;21.00;99.90
6758;DHT22;3416;53.074;8.822;2023-08-07T07:53:18;21.50;99.90
6758;DHT22;3416;53.074;8.822;2023-08-07T07:55:48;21.80;99.90
6758;DHT22;3416;53.074;8.822;2023-08-07T07:58:15;22.20;99.90
6758;DHT22;3416;53.074;8.822;2023-08-07T08:00:42;23.00;99.90
6758;DHT22;3416;53.074;8.822;2023-08-07T08:03:09;24.00;99.90
6758;DHT22;3416;53.074;8.822;2023-08-07T08:05:36;25.10;99.90
6758;DHT22;3416;53.074;8.822;2023-08-07T08:08:05;25.50;99.90
6758;DHT22;3416;53.074;8.822;2023-08-07T08:10:33;25.30;98.90
6758;DHT22;3416;53.074;8.822;2023-08-07T08:13:02;24.40;99.00
6758;DHT22;3416;53.074;8.822;2023-08-07T08:15:29;23.40;99.90
6758;DHT22;3416;53.074;8.822;2023-08-07T08:17:56;22.90;99.90
6758;DHT22;3416;53.074;8.822;2023-08-07T08:20:23;22.70;99.90
6758;DHT22;3416;53.074;8.822;2023-08-07T08:22:50;23.40;99.90
6758;DHT22;3416;53.074;8.822;2023-08-07T08:25:17;24.60;99.50
6758;DHT22;3416;53.074;8.822;2023-08-07T08:27:44;25.70;96.10
6758;DHT22;3416;53.074;8.822;2023-08-07T08:30:13;26.60;93.10
6758;DHT22;3416;53.074;8.822;2023-08-07T08:32:39;27.30;90.90
6758;DHT22;3416;53.074;8.822;2023-08-07T08:35:07;27.70;91.00
6758;DHT22;3416;53.074;8.822;2023-08-07T08:37:34;27.30;90.00
6758;DHT22;3416;53.074;8.822;2023-08-07T08:40:01;26.70;90.60
6758;DHT22;3416;53.074;8.822;2023-08-07T08:42:28;26.10;91.10
6758;DHT22;3416;53.074;8.822;2023-08-07T08:44:56;25.00;91.70
6758;DHT22;3416;53.074;8.822;2023-08-07T08:47:26;24.20;92.50
6758;DHT22;3416;53.074;8.822;2023-08-07T08:49:56;23.20;94.10
6758;DHT22;3416;53.074;8.822;2023-08-07T08:52:28;22.90;95.80
6758;DHT22;3416;53.074;8.822;2023-08-07T08:54:56;23.10;96.40
6758;DHT22;3416;53.074;8.822;2023-08-07T08:57:24;23.30;95.60
6758;DHT22;3416;53.074;8.822;2023-08-07T08:59:52;23.80;95.70
6758;DHT22;3416;53.074;8.822;2023-08-07T09:02:20;25.00;93.80
6758;DHT22;3416;53.074;8.822;2023-08-07T09:04:49;25.80;92.20
6758;DHT22;3416;53.074;8.822;2023-08-07T09:07:16;26.80;90.90
6758;DHT22;3416;53.074;8.822;2023-08-07T09:09:46;27.10;90.20
6758;DHT22;3416;53.074;8.822;2023-08-07T09:12:16;26.80;89.00
6758;DHT22;3416;53.074;8.822;2023-08-07T09:14:50;26.00;90.50
6758;DHT22;3416;53.074;8.822;2023-08-07T09:17:22;25.00;91.50
6758;DHT22;3416;53.074;8.822;2023-08-07T09:20:00;23.40;94.20
6758;DHT22;3416;53.074;8.822;2023-08-07T09:22:29;21.40;99.90
6758;DHT22;3416;53.074;8.822;2023-08-07T09:24:56;20.30;99.90
6758;DHT22;3416;53.074;8.822;2023-08-07T09:27:26;19.50;99.90
6758;DHT22;3416;53.074;8.822;2023-08-07T09:29:55;19.00;99.90
6758;DHT22;3416;53.074;8.822;2023-08-07T09:32:22;18.60;99.90
6758;DHT22;3416;53.074;8.822;2023-08-07T09:34:50;18.60;99.90
6758;DHT22;3416;53.074;8.822;2023-08-07T09:37:18;19.20;99.90
6758;DHT22;3416;53.074;8.822;2023-08-07T09:39:46;20.30;99.90
6758;DHT22;3416;53.074;8.822;2023-08-07T09:42:14;21.80;99.90
6758;DHT22;3416;53.074;8.822;2023-08-07T09:44:41;23.00;99.90
6758;DHT22;3416;53.074;8.822;2023-08-07T09:47:12;23.60;99.60
6758;DHT22;3416;53.074;8.822;2023-08-07T09:49:41;24.20;98.70
6758;DHT22;3416;53.074;8.822;2023-08-07T09:52:10;24.80;97.00
6758;DHT22;3416;53.074;8.822;2023-08-07T09:54:40;25.20;94.50
6758;DHT22;3416;53.074;8.822;2023-08-07T09:57:07;25.80;93.80
6758;DHT22;3416;53.074;8.822;2023-08-07T09:59:34;26.10;92.90
6758;DHT22;3416;53.074;8.822;2023-08-07T10:02:02;26.10;91.70
6758;DHT22;3416;53.074;8.822;2023-08-07T10:04:30;25.70;90.10
6758;DHT22;3416;53.074;8.822;2023-08-07T10:06:57;25.00;91.50
6758;DHT22;3416;53.074;8.822;2023-08-07T10:09:25;24.50;91.70
6758;DHT22;3416;53.074;8.822;2023-08-07T10:11:54;23.40;91.20
6758;DHT22;3416;53.074;8.822;2023-08-07T10:14:22;22.50;91.50
6758;DHT22;3416;53.074;8.822;2023-08-07T10:16:49;21.80;92.70
6758;DHT22;3416;53.074;8.822;2023-08-07T10:19:17;21.20;92.90
6758;DHT22;3416;53.074;8.822;2023-08-07T10:21:44;20.90;93.70
6758;DHT22;3416;53.074;8.822;2023-08-07T10:24:12;20.90;94.10
6758;DHT22;3416;53.074;8.822;2023-08-07T10:26:43;20.80;94.80
6758;DHT22;3416;53.074;8.822;2023-08-07T10:29:16;21.10;95.30
6758;DHT22;3416;53.074;8.822;2023-08-07T10:31:45;21.60;95.00
6758;DHT22;3416;53.074;8.822;2023-08-07T10:34:12;22.00;94.50
6758;DHT22;3416;53.074;8.822;2023-08-07T10:36:40;22.50;93.50
6758;DHT22;3416;53.074;8.822;2023-08-07T10:39:07;23.00;92.60
6758;DHT22;3416;53.074;8.822;2023-08-07T10:41:42;23.00;91.90
6758;DHT22;3416;53.074;8.822;2023-08-07T10:44:20;22.90;92.30
6758;DHT22;3416;53.074;8.822;2023-08-07T10:46:49;22.80;92.30
6758;DHT22;3416;53.074;8.822;2023-08-07T10:49:36;22.60;92.70
6758;DHT22;3416;53.074;8.822;2023-08-07T10:52:07;21.80;94.40
6758;DHT22;3416;53.074;8.822;2023-08-07T10:54:38;21.30;96.30
6758;DHT22;3416;53.074;8.822;2023-08-07T10:57:11;21.20;97.70
6758;DHT22;3416;53.074;8.822;2023-08-07T10:59:44;20.80;98.40
6758;DHT22;3416;53.074;8.822;2023-08-07T11:02:12;20.30;99.60
6758;DHT22;3416;53.074;8.822;2023-08-07T11:04:40;20.10;99.90
6758;DHT22;3416;53.074;8.822;2023-08-07T11:07:07;20.00;99.90
6758;DHT22;3416;53.074;8.822;2023-08-07T11:09:34;20.00;99.90
6758;DHT22;3416;53.074;8.822;2023-08-07T11:12:01;20.20;99.90
6758;DHT22;3416;53.074;8.822;2023-08-07T11:14:28;20.50;99.90
6758;DHT22;3416;53.074;8.822;2023-08-07T11:16:57;20.90;99.90
6758;DHT22;3416;53.074;8.822;2023-08-07T11:19:24;21.30;98.00
6758;DHT22;3416;53.074;8.822;2023-08-07T11:21:53;21.60;96.70
6758;DHT22;3416;53.074;8.822;2023-08-07T11:24:22;21.80;96.30
6758;DHT22;3416;53.074;8.822;2023-08-07T11:26:49;22.00;96.00
6758;DHT22;3416;53.074;8.822;2023-08-07T11:29:17;22.20;95.10
6758;DHT22;3416;53.074;8.822;2023-08-07T11:31:45;22.10;95.20
6758;DHT22;3416;53.074;8.822;2023-08-07T11:34:13;21.90;95.10
6758;DHT22;3416;53.074;8.822;2023-08-07T11:36:41;21.60;95.60
6758;DHT22;3416;53.074;8.822;2023-08-07T11:39:09;21.50;96.10
6758;DHT22;3416;53.074;8.822;2023-08-07T11:41:36;21.40;95.30
6758;DHT22;3416;53.074;8.822;2023-08-07T11:44:04;21.30;95.20
6758;DHT22;3416;53.074;8.822;2023-08-07T11:46:31;21.00;94.90
6758;DHT22;3416;53.074;8.822;2023-08-07T11:48:58;20.80;95.20
6758;DHT22;3416;53.074;8.822;2023-08-07T11:51:27;20.70;95.90
6758;DHT22;3416;53.074;8.822;2023-08-07T11:53:55;20.90;95.70
6758;DHT22;3416;53.074;8.822;2023-08-07T11:56:25;21.10;95.40
6758;DHT22;3416;53.074;8.822;2023-08-07T11:58:52;21.20;95.30
6758;DHT22;3416;53.074;8.822;2023-08-07T12:01:21;21.40;94.60
6758;DHT22;3416;53.074;8.822;2023-08-07T12:03:53;21.50;93.90
6758;DHT22;3416;53.074;8.822;2023-08-07T12:06:21;21.70;93.40
6758;DHT22;3416;53.074;8.822;2023-08-07T12:08:52;21.70;93.30
6758;DHT22;3416;53.074;8.822;2023-08-07T12:11:20;21.50;92.70
6758;DHT22;3416;53.074;8.822;2023-08-07T12:13:48;21.70;92.90
6758;DHT22;3416;53.074;8.822;2023-08-07T12:16:16;21.80;91.50
6758;DHT22;3416;53.074;8.822;2023-08-07T12:18:45;21.70;91.70
6758;DHT22;3416;53.074;8.822;2023-08-07T12:21:14;21.70;92.10
6758;DHT22;3416;53.074;8.822;2023-08-07T12:23:41;21.50;92.50
6758;DHT22;3416;53.074;8.822;2023-08-07T12:26:09;21.30;92.90
6758;DHT22;3416;53.074;8.822;2023-08-07T12:28:37;21.00;93.10
6758;DHT22;3416;53.074;8.822;2023-08-07T12:31:04;20.80;93.60
6758;DHT22;3416;53.074;8.822;2023-08-07T12:33:32;20.50;94.10
6758;DHT22;3416;53.074;8.822;2023-08-07T12:36:00;20.30;94.30
6758;DHT22;3416;53.074;8.822;2023-08-07T12:38:28;20.20;94.80
6758;DHT22;3416;53.074;8.822;2023-08-07T12:40:55;20.40;94.90
6758;DHT22;3416;53.074;8.822;2023-08-07T12:43:24;20.60;94.70
6758;DHT22;3416;53.074;8.822;2023-08-07T12:45:52;20.90;94.30
6758;DHT22;3416;53.074;8.822;2023-08-07T12:48:19;21.10;93.80
6758;DHT22;3416;53.074;8.822;2023-08-07T12:50:46;21.30;93.60
6758;DHT22;3416;53.074;8.822;2023-08-07T12:53:14;21.20;94.00
6758;DHT22;3416;53.074;8.822;2023-08-07T12:55:40;21.00;94.10
6758;DHT22;3416;53.074;8.822;2023-08-07T12:58:14;21.00;94.90
6758;DHT22;3416;53.074;8.822;2023-08-07T13:00:45;21.20;94.80
6758;DHT22;3416;53.074;8.822;2023-08-07T13:03:13;21.10;95.10
6758;DHT22;3416;53.074;8.822;2023-08-07T13:05:40;21.10;94.40
6758;DHT22;3416;53.074;8.822;2023-08-07T13:08:07;21.10;93.80
6758;DHT22;3416;53.074;8.822;2023-08-07T13:10:34;21.10;94.00
6758;DHT22;3416;53.074;8.822;2023-08-07T13:13:02;21.30;93.70
6758;DHT22;3416;53.074;8.822;2023-08-07T13:15:30;21.10;93.30
6758;DHT22;3416;53.074;8.822;2023-08-07T13:18:00;20.80;94.00
6758;DHT22;3416;53.074;8.822;2023-08-07T13:20:27;20.90;94.30
6758;DHT22;3416;53.074;8.822;2023-08-07T13:22:59;20.90;93.90
6758;DHT22;3416;53.074;8.822;2023-08-07T13:25:26;20.80;94.10
6758;DHT22;3416;53.074;8.822;2023-08-07T13:27:53;20.80;94.60
6758;DHT22;3416;53.074;8.822;2023-08-07T13:30:20;21.10;94.50
6758;DHT22;3416;53.074;8.822;2023-08-07T13:32:47;21.10;92.90
6758;DHT22;3416;53.074;8.822;2023-08-07T13:35:15;21.10;92.50
6758;DHT22;3416;53.074;8.822;2023-08-07T13:37:42;21.10;91.90
6758;DHT22;3416;53.074;8.822;2023-08-07T13:40:09;21.10;91.70
6758;DHT22;3416;53.074;8.822;2023-08-07T13:42:39;21.00;92.20
6758;DHT22;3416;53.074;8.822;2023-08-07T13:45:08;20.80;92.00
6758;DHT22;3416;53.074;8.822;2023-08-07T13:47:37;20.60;92.20
6758;DHT22;3416;53.074;8.822;2023-08-07T13:50:05;20.50;92.90
6758;DHT22;3416;53.074;8.822;2023-08-07T13:52:34;20.40;92.90
6758;DHT22;3416;53.074;8.822;2023-08-07T13:55:01;20.40;92.80
6758;DHT22;3416;53.074;8.822;2023-08-07T13:57:27;20.50;92.60
6758;DHT22;3416;53.074;8.822;2023-08-07T13:59:55;20.60;92.60
6758;DHT22;3416;53.074;8.822;2023-08-07T14:02:22;20.80;92.30
6758;DHT22;3416;53.074;8.822;2023-08-07T14:04:49;20.80;92.20
6758;DHT22;3416;53.074;8.822;2023-08-07T14:07:16;20.80;92.10
6758;DHT22;3416;53.074;8.822;2023-08-07T14:09:44;20.90;91.90
6758;DHT22;3416;53.074;8.822;2023-08-07T14:12:11;20.90;92.10
6758;DHT22;3416;53.074;8.822;2023-08-07T14:14:39;20.80;91.90
6758;DHT22;3416;53.074;8.822;2023-08-07T14:17:06;20.60;92.40
6758;DHT22;3416;53.074;8.822;2023-08-07T14:19:33;20.60;92.60
6758;DHT22;3416;53.074;8.822;2023-08-07T14:22:06;20.40;93.20
6758;DHT22;3416;53.074;8.822;2023-08-07T14:24:35;20.10;93.50
6758;DHT22;3416;53.074;8.822;2023-08-07T14:27:04;19.90;94.10
6758;DHT22;3416;53.074;8.822;2023-08-07T14:29:31;20.00;94.70
6758;DHT22;3416;53.074;8.822;2023-08-07T14:31:57;20.00;95.10
6758;DHT22;3416;53.074;8.822;2023-08-07T14:34:24;20.30;95.50
6758;DHT22;3416;53.074;8.822;2023-08-07T14:36:53;20.40;95.30
6758;DHT22;3416;53.074;8.822;2023-08-07T14:39:21;20.40;94.60
6758;DHT22;3416;53.074;8.822;2023-08-07T14:41:48;20.20;95.00
6758;DHT22;3416;53.074;8.822;2023-08-07T14:44:23;20.10;95.20
6758;DHT22;3416;53.074;8.822;2023-08-07T14:46:50;20.00;95.40
6758;DHT22;3416;53.074;8.822;2023-08-07T14:49:17;19.90;95.40
6758;DHT22;3416;53.074;8.822;2023-08-07T14:51:44;19.90;95.60
6758;DHT22;3416;53.074;8.822;2023-08-07T14:54:11;19.80;95.80
6758;DHT22;3416;53.074;8.822;2023-08-07T14:56:38;19.60;95.70
6758;DHT22;3416;53.074;8.822;2023-08-07T14:59:06;19.50;95.80
6758;DHT22;3416;53.074;8.822;2023-08-07T15:01:34;19.50;96.10
6758;DHT22;3416;53.074;8.822;2023-08-07T15:04:01;19.50;96.00
6758;DHT22;3416;53.074;8.822;2023-08-07T15:06:28;19.60;96.20
6758;DHT22;3416;53.074;8.822;2023-08-07T15:08:55;19.70;95.70
6758;DHT22;3416;53.074;8.822;2023-08-07T15:11:22;19.60;95.40
6758;DHT22;3416;53.074;8.822;2023-08-07T15:13:49;19.70;95.20
6758;DHT22;3416;53.074;8.822;2023-08-07T15:16:17;19.60;94.60
6758;DHT22;3416;53.074;8.822;2023-08-07T15:18:45;19.80;94.60
6758;DHT22;3416;53.074;8.822;2023-08-07T15:21:12;20.00;94.10
6758;DHT22;3416;53.074;8.822;2023-08-07T15:23:46;20.00;92.70
6758;DHT22;3416;53.074;8.822;2023-08-07T15:26:13;19.90;92.80
6758;DHT22;3416;53.074;8.822;2023-08-07T15:28:40;19.80;93.00
6758;DHT22;3416;53.074;8.822;2023-08-07T15:31:07;19.60;93.20
6758;DHT22;3416;53.074;8.822;2023-08-07T15:33:34;19.50;94.00
6758;DHT22;3416;53.074;8.822;2023-08-07T15:36:03;19.00;96.20
6758;DHT22;3416;53.074;8.822;2023-08-07T15:38:30;18.60;97.70
6758;DHT22;3416;53.074;8.822;2023-08-07T15:41:00;18.20;99.70
6758;DHT22;3416;53.074;8.822;2023-08-07T15:43:27;17.80;99.90
6758;DHT22;3416;53.074;8.822;2023-08-07T15:45:54;17.40;99.90
6758;DHT22;3416;53.074;8.822;2023-08-07T15:48:22;17.30;99.90
6758;DHT22;3416;53.074;8.822;2023-08-07T15:50:49;17.30;99.90
6758;DHT22;3416;53.074;8.822;2023-08-07T15:53:20;17.40;99.90
6758;DHT22;3416;53.074;8.822;2023-08-07T15:55:47;17.50;99.90
6758;DHT22;3416;53.074;8.822;2023-08-07T15:58:14;17.60;99.90
6758;DHT22;3416;53.074;8.822;2023-08-07T16:00:43;17.60;99.90
6758;DHT22;3416;53.074;8.822;2023-08-07T16:03:10;17.60;99.90
6758;DHT22;3416;53.074;8.822;2023-08-07T16:05:38;17.60;99.90